Time;durP1;ratioP1;P1;durP2;ratioP2;P2;SDS_P1;SDS_P2;PMS_P1;PMS_P2;Temp;Humidity;BMP_temperature;BMP_pressure;BME280_temperature;BME280_humidity;BME280_pressure;Samples;Min_cycle;Max_cycle;Signal;HPM_P1;HPM_P2
2022/06/07 00:00:07;;;;;;;;;;;12.40;99.90;;;;;;5034299;28;19925;-76
2022/06/07 00:02:33;;;;;;;;;;;12.40;99.90;;;;;;5018108;28;19928;-76
2022/06/07 00:04:58;;;;;;;;;;;12.40;99.90;;;;;;5034835;28;19921;-76
2022/06/07 00:07:24;;;;;;;;;;;12.30;99.90;;;;;;5035179;28;19921;-75
2022/06/07 00:09:50;;;;;;;;;;;12.40;99.90;;;;;;5035118;28;20012;-76
2022/06/07 00:12:17;;;;;;;;;;;12.40;99.90;;;;;;5034982;28;19921;-75
2022/06/07 00:14:43;;;;;;;;;;;12.40;99.90;;;;;;5017372;28;19921;-76
2022/06/07 00:17:09;;;;;;;;;;;12.40;99.90;;;;;;5033598;28;19920;-76
2022/06/07 00:19:34;;;;;;;;;;;12.40;99.90;;;;;;5017662;28;19927;-76
2022/06/07 00:22:12;;;;;;;;;;;12.40;99.90;;;;;;5034647;28;19921;-76
2022/06/07 00:24:37;;;;;;;;;;;12.40;99.90;;;;;;5034688;28;19924;-77
2022/06/07 00:27:03;;;;;;;;;;;12.40;99.90;;;;;;5016916;28;19921;-76
2022/06/07 00:29:29;;;;;;;;;;;12.40;99.90;;;;;;5017203;28;19921;-75
2022/06/07 00:31:54;;;;;;;;;;;12.40;99.90;;;;;;5033382;28;19928;-75
2022/06/07 00:34:20;;;;;;;;;;;12.40;99.90;;;;;;5033256;28;19921;-75
2022/06/07 00:36:45;;;;;;;;;;;12.40;99.90;;;;;;5017373;28;20258;-76
2022/06/07 00:39:11;;;;;;;;;;;12.40;99.90;;;;;;5016862;28;19921;-75
2022/06/07 00:41:36;;;;;;;;;;;12.40;99.90;;;;;;5035107;28;20372;-76
2022/06/07 00:44:17;;;;;;;;;;;12.40;99.90;;;;;;5034197;28;19921;-76
2022/06/07 00:46:43;;;;;;;;;;;12.50;99.90;;;;;;5034292;28;19975;-75
2022/06/07 00:49:09;;;;;;;;;;;12.40;99.90;;;;;;5034311;28;19925;-75
2022/06/07 00:51:35;;;;;;;;;;;12.40;99.90;;;;;;5033271;28;19928;-75
2022/06/07 00:54:00;;;;;;;;;;;12.40;99.90;;;;;;5034204;28;19921;-77
2022/06/07 00:56:26;;;;;;;;;;;12.40;99.90;;;;;;5038039;28;19924;-70
2022/06/07 00:58:51;;;;;;;;;;;12.40;99.90;;;;;;5051267;28;19947;-70
2022/06/07 01:01:17;;;;;;;;;;;12.30;99.90;;;;;;5051748;28;19968;-70
2022/06/07 01:03:43;;;;;;;;;;;12.30;99.90;;;;;;5051255;28;19936;-71
2022/06/07 01:11:37;;;;;;;;;;;12.40;99.90;;;;;;5034726;28;19931;-76
2022/06/07 01:14:02;;;;;;;;;;;12.40;99.90;;;;;;5033990;28;20019;-76
2022/06/07 01:16:28;;;;;;;;;;;12.40;99.90;;;;;;5034713;28;19964;-76
2022/06/07 01:18:53;;;;;;;;;;;12.40;99.90;;;;;;5032658;28;19921;-76
2022/06/07 01:21:29;;;;;;;;;;;12.40;99.90;;;;;;4999958;28;19921;-76
2022/06/07 01:23:55;;;;;;;;;;;12.50;99.90;;;;;;5034528;28;19995;-75
2022/06/07 01:26:21;;;;;;;;;;;12.40;99.90;;;;;;5033688;28;20357;-75
2022/06/07 01:28:47;;;;;;;;;;;12.40;99.90;;;;;;5017271;28;19924;-76
2022/06/07 01:31:12;;;;;;;;;;;12.40;99.90;;;;;;5033738;28;20031;-76
2022/06/07 01:33:38;;;;;;;;;;;12.50;99.90;;;;;;5033674;28;20016;-75
2022/06/07 01:36:05;;;;;;;;;;;12.40;99.90;;;;;;5033803;28;20012;-75
2022/06/07 01:38:31;;;;;;;;;;;12.40;99.90;;;;;;5034027;28;20319;-75
2022/06/07 01:43:41;;;;;;;;;;;12.40;99.90;;;;;;5033685;28;19939;-75
2022/06/07 01:46:06;;;;;;;;;;;12.50;99.90;;;;;;5033681;28;19925;-75
2022/06/07 01:48:32;;;;;;;;;;;12.50;99.90;;;;;;5015975;28;20012;-76
2022/06/07 01:51:01;;;;;;;;;;;12.50;99.90;;;;;;5034215;28;20218;-75
2022/06/07 01:53:27;;;;;;;;;;;12.50;99.90;;;;;;5032324;28;19932;-76
2022/06/07 01:55:52;;;;;;;;;;;12.50;99.90;;;;;;5033221;28;19921;-76
2022/06/07 01:58:18;;;;;;;;;;;12.50;99.90;;;;;;5016032;28;19928;-75
2022/06/07 02:00:43;;;;;;;;;;;12.50;99.90;;;;;;5016896;28;19990;-75
2022/06/07 02:03:09;;;;;;;;;;;12.60;99.90;;;;;;5033504;28;19928;-75
2022/06/07 02:05:34;;;;;;;;;;;12.50;99.90;;;;;;5015822;28;19921;-75
2022/06/07 02:08:00;;;;;;;;;;;12.50;99.90;;;;;;5034010;28;19921;-75
2022/06/07 02:10:25;;;;;;;;;;;12.50;99.90;;;;;;5031916;28;19921;-76
2022/06/07 02:12:51;;;;;;;;;;;12.50;99.90;;;;;;5033357;28;19960;-75
2022/06/07 02:15:17;;;;;;;;;;;12.50;99.90;;;;;;5035873;28;19971;-76
2022/06/07 02:17:42;;;;;;;;;;;12.50;99.90;;;;;;5037219;28;19967;-76
2022/06/07 02:20:08;;;;;;;;;;;12.60;99.90;;;;;;5019847;28;20404;-76
2022/06/07 02:22:33;;;;;;;;;;;12.60;99.90;;;;;;5037269;28;20015;-75
2022/06/07 02:24:59;;;;;;;;;;;12.60;99.90;;;;;;5019176;28;19921;-75
2022/06/07 02:27:24;;;;;;;;;;;12.60;99.90;;;;;;5019086;28;19920;-75
2022/06/07 02:29:50;;;;;;;;;;;12.60;99.90;;;;;;5036810;28;19921;-76
2022/06/07 02:32:21;;;;;;;;;;;12.60;99.90;;;;;;5035516;28;19921;-75
2022/06/07 02:34:47;;;;;;;;;;;12.60;99.90;;;;;;5037180;28;19932;-76
2022/06/07 02:37:12;;;;;;;;;;;12.60;99.90;;;;;;5037049;28;19921;-76
2022/06/07 02:39:38;;;;;;;;;;;12.60;99.90;;;;;;5036566;28;20012;-76
2022/06/07 02:42:04;;;;;;;;;;;12.50;99.90;;;;;;5051429;28;19928;-72
2022/06/07 02:44:29;;;;;;;;;;;12.60;99.90;;;;;;5051269;28;19925;-71
2022/06/07 02:46:55;;;;;;;;;;;12.60;99.90;;;;;;5050500;28;19921;-71
2022/06/07 02:49:20;;;;;;;;;;;12.60;99.90;;;;;;5004674;28;20011;-77
2022/06/07 02:51:46;;;;;;;;;;;12.60;99.90;;;;;;5019230;28;20044;-76
2022/06/07 02:54:12;;;;;;;;;;;12.60;99.90;;;;;;5002510;28;19970;-76
2022/06/07 02:56:38;;;;;;;;;;;12.60;99.90;;;;;;5036185;28;19967;-76
2022/06/07 02:59:03;;;;;;;;;;;12.60;99.90;;;;;;5018557;28;20003;-76
2022/06/07 03:01:29;;;;;;;;;;;12.60;99.90;;;;;;5036002;28;20024;-75
2022/06/07 03:03:54;;;;;;;;;;;12.60;99.90;;;;;;5019467;28;19992;-75
2022/06/07 03:06:20;;;;;;;;;;;12.60;99.90;;;;;;5036079;28;19983;-76
2022/06/07 03:08:45;;;;;;;;;;;12.60;99.90;;;;;;5035964;28;20015;-76
2022/06/07 03:11:11;;;;;;;;;;;12.70;99.90;;;;;;5035974;28;20339;-76
2022/06/07 03:13:36;;;;;;;;;;;12.70;99.90;;;;;;5035915;28;19924;-75
2022/06/07 03:16:02;;;;;;;;;;;12.60;99.90;;;;;;5002168;28;20289;-76
2022/06/07 03:18:28;;;;;;;;;;;12.70;99.90;;;;;;5018415;28;19927;-76
2022/06/07 03:20:53;;;;;;;;;;;12.60;99.90;;;;;;5019085;28;19925;-75
2022/06/07 03:23:19;;;;;;;;;;;12.60;99.90;;;;;;5035802;28;20398;-75
2022/06/07 03:25:44;;;;;;;;;;;12.70;99.90;;;;;;5035353;28;19921;-75
2022/06/07 03:28:10;;;;;;;;;;;12.70;99.90;;;;;;5036401;28;19920;-75
2022/06/07 03:30:35;;;;;;;;;;;12.70;99.90;;;;;;5018949;28;19925;-76
2022/06/07 03:33:01;;;;;;;;;;;12.70;99.90;;;;;;5036050;28;19921;-77
2022/06/07 03:35:27;;;;;;;;;;;12.80;99.90;;;;;;5035493;28;19928;-76
2022/06/07 03:37:52;;;;;;;;;;;12.70;99.90;;;;;;5035443;28;20019;-76
2022/06/07 03:40:43;;;;;;;;;;;12.70;99.90;;;;;;5035400;28;19921;-75
2022/06/07 03:43:05;;;;;;;;;;;12.80;99.90;;;;;;5035478;28;19921;-76
2022/06/07 03:45:30;;;;;;;;;;;12.70;99.90;;;;;;5035767;28;19967;-76
2022/06/07 03:47:56;;;;;;;;;;;12.70;99.90;;;;;;5035326;28;19925;-74
2022/06/07 03:50:21;;;;;;;;;;;12.80;99.90;;;;;;5017653;28;19921;-76
2022/06/07 03:52:47;;;;;;;;;;;12.80;99.90;;;;;;5035105;28;19921;-76
2022/06/07 03:55:12;;;;;;;;;;;12.80;99.90;;;;;;5035381;28;19944;-76
2022/06/07 03:57:38;;;;;;;;;;;12.70;99.90;;;;;;5035013;28;19921;-76
2022/06/07 04:00:06;;;;;;;;;;;12.80;99.90;;;;;;5035552;28;20280;-74
2022/06/07 04:02:32;;;;;;;;;;;12.80;99.90;;;;;;5035690;28;19921;-76
2022/06/07 04:04:58;;;;;;;;;;;12.80;99.90;;;;;;5017367;28;20351;-75
2022/06/07 04:10:08;;;;;;;;;;;12.80;99.90;;;;;;5035714;28;19947;-76
2022/06/07 04:12:33;;;;;;;;;;;12.80;99.90;;;;;;5034860;28;19925;-76
2022/06/07 04:14:59;;;;;;;;;;;12.80;99.90;;;;;;5034792;28;19921;-75
2022/06/07 04:17:25;;;;;;;;;;;12.80;99.90;;;;;;5035552;28;19964;-74
2022/06/07 04:19:50;;;;;;;;;;;12.80;99.90;;;;;;5035437;28;19929;-73
2022/06/07 04:22:16;;;;;;;;;;;12.80;99.90;;;;;;5022106;28;19921;-70
2022/06/07 04:24:41;;;;;;;;;;;12.80;99.90;;;;;;5052133;28;19921;-72
2022/06/07 04:27:07;;;;;;;;;;;12.80;99.90;;;;;;5053216;28;19995;-71
2022/06/07 04:29:32;;;;;;;;;;;12.80;99.90;;;;;;5052818;28;19961;-72
2022/06/07 04:31:58;;;;;;;;;;;12.80;99.90;;;;;;5046543;28;19921;-75
2022/06/07 04:34:23;;;;;;;;;;;12.70;99.90;;;;;;5036328;28;19921;-75
2022/06/07 04:36:49;;;;;;;;;;;12.80;99.90;;;;;;5036555;28;19925;-77
2022/06/07 04:39:14;;;;;;;;;;;12.80;99.90;;;;;;5034989;28;19921;-74
2022/06/07 04:41:40;;;;;;;;;;;12.70;99.90;;;;;;5018129;28;19928;-75
2022/06/07 04:44:06;;;;;;;;;;;12.80;99.90;;;;;;5033468;28;19920;-75
2022/06/07 04:46:31;;;;;;;;;;;12.70;99.90;;;;;;5017407;28;20345;-75
2022/06/07 04:48:57;;;;;;;;;;;12.70;99.90;;;;;;5035662;28;20317;-76
2022/06/07 04:51:27;;;;;;;;;;;12.70;99.90;;;;;;5017950;28;19975;-77
2022/06/07 04:53:53;;;;;;;;;;;12.70;99.90;;;;;;5017490;28;20020;-77
2022/06/07 04:56:22;;;;;;;;;;;12.70;99.90;;;;;;5035517;28;19984;-77
2022/06/07 04:58:48;;;;;;;;;;;12.70;99.90;;;;;;5017088;28;19921;-77
2022/06/07 05:01:15;;;;;;;;;;;12.60;99.90;;;;;;5017391;28;20007;-76
2022/06/07 05:03:40;;;;;;;;;;;12.60;99.90;;;;;;5034370;28;19921;-76
2022/06/07 05:06:23;;;;;;;;;;;12.60;99.90;;;;;;5032977;28;20385;-76
2022/06/07 05:08:48;;;;;;;;;;;12.60;99.90;;;;;;5034083;28;19921;-76
2022/06/07 05:11:14;;;;;;;;;;;12.70;99.90;;;;;;5034357;28;19951;-80
2022/06/07 05:13:40;;;;;;;;;;;12.60;99.90;;;;;;5033233;28;19921;-80
2022/06/07 05:16:06;;;;;;;;;;;12.60;99.90;;;;;;5033404;28;20026;-75
2022/06/07 05:18:31;;;;;;;;;;;12.60;99.90;;;;;;5034011;28;20029;-75
2022/06/07 05:20:57;;;;;;;;;;;12.60;99.90;;;;;;5034845;28;19925;-75
2022/06/07 05:23:22;;;;;;;;;;;12.60;99.90;;;;;;5034651;28;19921;-75
2022/06/07 05:25:51;;;;;;;;;;;12.50;99.90;;;;;;5034133;28;20364;-75
2022/06/07 05:28:17;;;;;;;;;;;12.50;99.90;;;;;;5033864;28;19924;-75
2022/06/07 05:30:43;;;;;;;;;;;12.50;99.90;;;;;;5016598;28;19921;-74
2022/06/07 05:33:08;;;;;;;;;;;12.50;99.90;;;;;;5033876;28;19944;-75
2022/06/07 05:35:34;;;;;;;;;;;12.50;99.90;;;;;;5034592;28;19925;-75
2022/06/07 05:37:59;;;;;;;;;;;12.50;99.90;;;;;;5034068;28;19935;-75
2022/06/07 05:40:25;;;;;;;;;;;12.60;99.90;;;;;;5033922;28;20281;-75
2022/06/07 05:42:50;;;;;;;;;;;12.50;99.90;;;;;;5034258;28;20273;-75
2022/06/07 05:45:16;;;;;;;;;;;12.50;99.90;;;;;;5033827;28;19926;-75
2022/06/07 05:47:41;;;;;;;;;;;12.50;99.90;;;;;;5033784;28;19944;-75
2022/06/07 05:50:09;;;;;;;;;;;12.50;99.90;;;;;;5036820;28;19943;-75
2022/06/07 05:52:36;;;;;;;;;;;12.50;99.90;;;;;;5037617;28;19921;-75
2022/06/07 05:55:02;;;;;;;;;;;12.50;99.90;;;;;;5036470;28;19925;-75
2022/06/07 05:57:28;;;;;;;;;;;12.50;99.90;;;;;;5044736;28;19988;-75
2022/06/07 05:59:54;;;;;;;;;;;12.50;99.90;;;;;;5035267;28;20024;-75
2022/06/07 06:02:19;;;;;;;;;;;12.50;99.90;;;;;;5048722;28;19921;-75
2022/06/07 06:04:45;;;;;;;;;;;12.50;99.90;;;;;;5054520;28;19927;-75
2022/06/07 06:07:10;;;;;;;;;;;12.50;99.90;;;;;;5061992;28;19905;-76
2022/06/07 06:12:21;;;;;;;;;;;12.50;99.90;;;;;;5060597;28;19928;-75
2022/06/07 06:14:46;;;;;;;;;;;12.50;99.90;;;;;;5037270;28;19924;-75
2022/06/07 06:17:12;;;;;;;;;;;12.50;99.90;;;;;;5038080;28;19928;-75
2022/06/07 06:19:38;;;;;;;;;;;12.50;99.90;;;;;;5037528;28;19928;-76
2022/06/07 06:22:04;;;;;;;;;;;12.50;99.90;;;;;;5036953;28;20285;-76
2022/06/07 06:24:30;;;;;;;;;;;12.50;99.90;;;;;;5037459;28;20015;-75
2022/06/07 06:26:58;;;;;;;;;;;12.60;99.90;;;;;;5037162;28;19999;-77
2022/06/07 06:29:25;;;;;;;;;;;12.60;99.90;;;;;;5036697;28;19921;-74
2022/06/07 06:31:51;;;;;;;;;;;12.50;99.90;;;;;;5037047;28;19921;-75
2022/06/07 06:34:18;;;;;;;;;;;12.60;99.90;;;;;;5036884;28;19921;-76
2022/06/07 06:36:44;;;;;;;;;;;12.60;99.90;;;;;;5036850;28;19921;-75
2022/06/07 06:39:10;;;;;;;;;;;12.60;99.90;;;;;;5036666;28;19921;-76
2022/06/07 06:41:37;;;;;;;;;;;12.60;99.90;;;;;;5037477;28;19932;-75
2022/06/07 06:44:02;;;;;;;;;;;12.60;99.90;;;;;;5019943;28;19976;-77
2022/06/07 06:46:29;;;;;;;;;;;12.50;99.90;;;;;;5035446;28;19921;-76
2022/06/07 06:48:55;;;;;;;;;;;12.50;99.90;;;;;;5036508;28;19921;-80
2022/06/07 06:51:21;;;;;;;;;;;12.50;99.90;;;;;;5036555;28;20361;-75
2022/06/07 06:53:47;;;;;;;;;;;12.40;99.90;;;;;;5036444;28;19925;-76
2022/06/07 06:56:13;;;;;;;;;;;12.40;99.90;;;;;;5035758;28;19974;-76
2022/06/07 06:58:39;;;;;;;;;;;12.40;99.90;;;;;;5036332;28;19928;-76
2022/06/07 07:01:06;;;;;;;;;;;12.30;99.90;;;;;;5035005;28;19944;-76
2022/06/07 07:03:31;;;;;;;;;;;12.30;99.90;;;;;;5035090;28;19927;-75
2022/06/07 07:05:57;;;;;;;;;;;12.30;99.90;;;;;;5037059;28;19921;-80
2022/06/07 07:08:23;;;;;;;;;;;12.30;99.90;;;;;;5018510;28;19921;-75
2022/06/07 07:10:49;;;;;;;;;;;12.30;99.90;;;;;;5036081;28;19967;-75
2022/06/07 07:13:15;;;;;;;;;;;12.30;99.90;;;;;;5018548;28;19925;-75
2022/06/07 07:15:45;;;;;;;;;;;12.30;99.90;;;;;;5035046;28;19921;-75
2022/06/07 07:18:10;;;;;;;;;;;12.30;99.90;;;;;;5018233;28;19925;-75
2022/06/07 07:20:38;;;;;;;;;;;12.30;99.90;;;;;;5035875;28;20285;-75
2022/06/07 07:23:04;;;;;;;;;;;12.30;99.90;;;;;;5034503;28;20392;-75
2022/06/07 07:25:29;;;;;;;;;;;12.30;99.90;;;;;;5019526;28;19921;-74
2022/06/07 07:27:56;;;;;;;;;;;12.30;99.90;;;;;;5035939;28;19950;-75
2022/06/07 07:30:22;;;;;;;;;;;12.30;99.90;;;;;;5035355;28;20427;-74
2022/06/07 07:32:47;;;;;;;;;;;12.30;99.90;;;;;;5002204;28;19921;-74
2022/06/07 07:35:13;;;;;;;;;;;12.30;99.90;;;;;;5035742;28;20292;-75
2022/06/07 07:37:39;;;;;;;;;;;12.30;99.90;;;;;;5035647;28;19948;-75
2022/06/07 07:40:05;;;;;;;;;;;12.30;99.90;;;;;;5035409;28;19925;-73
2022/06/07 07:42:30;;;;;;;;;;;12.40;99.90;;;;;;5035408;28;19921;-74
2022/06/07 07:44:56;;;;;;;;;;;12.40;99.90;;;;;;5025189;28;19924;-70
2022/06/07 07:47:22;;;;;;;;;;;12.50;99.90;;;;;;5051385;28;20019;-70
2022/06/07 07:49:47;;;;;;;;;;;12.50;99.90;;;;;;5049706;28;19921;-72
2022/06/07 07:52:18;;;;;;;;;;;12.60;99.90;;;;;;5026755;28;20018;-75
2022/06/07 07:54:44;;;;;;;;;;;12.60;99.90;;;;;;5034264;28;19921;-76
2022/06/07 07:57:09;;;;;;;;;;;12.70;99.90;;;;;;5034445;28;20268;-75
2022/06/07 07:59:35;;;;;;;;;;;12.70;99.90;;;;;;5035161;28;20289;-76
2022/06/07 08:02:00;;;;;;;;;;;12.80;99.90;;;;;;5034966;28;20292;-74
2022/06/07 08:04:26;;;;;;;;;;;12.90;99.90;;;;;;5001204;28;20408;-74
2022/06/07 08:06:52;;;;;;;;;;;12.90;99.90;;;;;;5034932;28;19927;-74
2022/06/07 08:09:19;;;;;;;;;;;13.00;99.90;;;;;;5018051;28;19921;-75
2022/06/07 08:11:44;;;;;;;;;;;13.00;99.90;;;;;;5034083;28;20342;-75
2022/06/07 08:14:11;;;;;;;;;;;13.10;99.90;;;;;;5018149;28;19964;-75
2022/06/07 08:16:37;;;;;;;;;;;13.10;99.90;;;;;;5001047;28;19921;-75
2022/06/07 08:19:03;;;;;;;;;;;13.10;99.90;;;;;;5034673;28;19928;-75
2022/06/07 08:21:30;;;;;;;;;;;13.20;99.90;;;;;;5017339;28;19925;-74
2022/06/07 08:23:56;;;;;;;;;;;13.30;99.90;;;;;;5034931;28;20428;-74
2022/06/07 08:26:21;;;;;;;;;;;13.50;99.90;;;;;;5016929;28;19979;-74
2022/06/07 08:28:47;;;;;;;;;;;13.60;99.90;;;;;;5034845;28;19928;-75
2022/06/07 08:31:17;;;;;;;;;;;13.70;99.90;;;;;;5034564;28;20421;-75
2022/06/07 08:39:11;;;;;;;;;;;14.20;99.90;;;;;;5034959;28;19928;-80
2022/06/07 08:41:39;;;;;;;;;;;14.30;99.90;;;;;;5033491;28;20353;-75
2022/06/07 08:44:06;;;;;;;;;;;14.40;99.90;;;;;;5034169;28;20447;-75
2022/06/07 08:46:33;;;;;;;;;;;14.50;99.90;;;;;;5033440;28;19964;-75
2022/06/07 08:48:59;;;;;;;;;;;14.50;99.90;;;;;;5034252;28;20046;-74
2022/06/07 08:51:29;;;;;;;;;;;14.60;99.90;;;;;;5033135;28;20008;-74
2022/06/07 08:54:02;;;;;;;;;;;14.60;99.90;;;;;;5034284;28;19967;-74
2022/06/07 08:56:29;;;;;;;;;;;14.60;99.90;;;;;;5034139;28;19921;-75
2022/06/07 08:58:57;;;;;;;;;;;14.80;99.90;;;;;;5033002;28;19921;-75
2022/06/07 09:01:32;;;;;;;;;;;14.90;99.90;;;;;;5032851;28;19921;-75
2022/06/07 09:03:59;;;;;;;;;;;15.00;99.90;;;;;;5034061;28;20067;-75
2022/06/07 09:06:26;;;;;;;;;;;15.10;99.90;;;;;;5034027;28;19921;-75
2022/06/07 09:08:52;;;;;;;;;;;15.10;99.90;;;;;;5033535;28;20043;-75
2022/06/07 09:14:23;;;;;;;;;;;14.90;99.90;;;;;;5034010;28;19921;-75
2022/06/07 09:16:49;;;;;;;;;;;14.90;99.90;;;;;;5033592;28;19928;-76
2022/06/07 09:19:15;;;;;;;;;;;14.80;99.90;;;;;;5016813;28;20261;-74
2022/06/07 09:21:42;;;;;;;;;;;14.80;99.90;;;;;;5034652;28;19928;-75
2022/06/07 09:24:12;;;;;;;;;;;14.90;99.90;;;;;;5035468;28;20011;-76
2022/06/07 09:26:38;;;;;;;;;;;14.90;99.90;;;;;;5037481;28;19921;-75
2022/06/07 09:29:05;;;;;;;;;;;15.10;99.90;;;;;;5036907;28;19927;-76
2022/06/07 09:31:31;;;;;;;;;;;15.20;99.90;;;;;;5036748;28;19967;-75
2022/06/07 09:34:03;;;;;;;;;;;15.40;99.90;;;;;;5020192;28;19924;-75
2022/06/07 09:36:31;;;;;;;;;;;15.50;99.90;;;;;;5038979;28;20078;-74
2022/06/07 09:39:06;;;;;;;;;;;15.70;99.90;;;;;;5043966;28;19925;-72
2022/06/07 09:41:40;;;;;;;;;;;15.80;99.90;;;;;;5053906;28;19928;-72
2022/06/07 09:44:05;;;;;;;;;;;15.80;99.90;;;;;;5040669;28;19953;-73
2022/06/07 09:46:32;;;;;;;;;;;15.90;99.90;;;;;;5024078;28;19921;-72
2022/06/07 09:48:57;;;;;;;;;;;16.00;99.90;;;;;;5041782;28;19921;-72
2022/06/07 09:51:27;;;;;;;;;;;16.00;99.90;;;;;;5039872;28;20296;-76
2022/06/07 09:53:55;;;;;;;;;;;16.00;99.90;;;;;;5036276;28;19921;-75
2022/06/07 09:56:24;;;;;;;;;;;16.00;99.90;;;;;;5037422;28;19972;-75
2022/06/07 09:59:08;;;;;;;;;;;15.90;99.90;;;;;;5036257;28;20003;-75
2022/06/07 10:01:42;;;;;;;;;;;15.80;99.90;;;;;;5037168;28;19921;-76
2022/06/07 10:04:14;;;;;;;;;;;15.70;99.90;;;;;;5036899;28;20454;-75
2022/06/07 10:06:58;;;;;;;;;;;15.60;99.90;;;;;;5036589;28;19964;-75
2022/06/07 10:09:30;;;;;;;;;;;15.60;99.90;;;;;;5035874;28;19928;-79
2022/06/07 10:12:01;;;;;;;;;;;15.60;99.90;;;;;;5035924;28;19925;-76
2022/06/07 10:14:30;;;;;;;;;;;15.60;99.90;;;;;;5036435;28;19927;-76
2022/06/07 10:17:01;;;;;;;;;;;15.50;99.90;;;;;;5037199;28;20318;-75
2022/06/07 10:19:27;;;;;;;;;;;15.50;99.90;;;;;;5037079;28;19920;-76
2022/06/07 10:22:02;;;;;;;;;;;15.60;99.90;;;;;;5037010;28;20277;-76
2022/06/07 10:24:27;;;;;;;;;;;15.60;99.90;;;;;;5037278;28;20377;-76
2022/06/07 10:27:12;;;;;;;;;;;15.70;99.90;;;;;;5036725;28;19921;-76
2022/06/07 10:29:56;;;;;;;;;;;15.70;99.90;;;;;;5019751;28;20273;-77
2022/06/07 10:32:48;;;;;;;;;;;15.70;99.90;;;;;;5037663;28;20319;-76
2022/06/07 10:35:15;;;;;;;;;;;15.70;99.90;;;;;;5032893;28;20052;-76
2022/06/07 10:37:54;;;;;;;;;;;15.60;99.90;;;;;;5020067;28;19921;-77
2022/06/07 10:40:21;;;;;;;;;;;15.60;99.90;;;;;;5019495;28;20067;-75
2022/06/07 10:42:53;;;;;;;;;;;15.70;99.90;;;;;;5035542;28;19921;-76
2022/06/07 10:45:30;;;;;;;;;;;15.80;99.90;;;;;;5036647;28;20015;-76
2022/06/07 10:47:57;;;;;;;;;;;15.90;99.90;;;;;;5019915;28;19928;-76
2022/06/07 10:50:27;;;;;;;;;;;16.00;99.90;;;;;;5035597;28;20004;-76
2022/06/07 10:53:01;;;;;;;;;;;16.10;99.90;;;;;;5035375;28;19928;-80
2022/06/07 10:55:35;;;;;;;;;;;16.00;99.90;;;;;;5035524;28;19928;-73
2022/06/07 10:58:06;;;;;;;;;;;16.10;99.90;;;;;;5036567;28;19921;-73
2022/06/07 11:00:39;;;;;;;;;;;16.10;99.90;;;;;;5037179;28;20273;-78
2022/06/07 11:03:26;;;;;;;;;;;16.20;99.90;;;;;;5018669;28;19928;-75
2022/06/07 11:11:38;;;;;;;;;;;15.90;99.90;;;;;;5035878;28;19964;-75
2022/06/07 11:14:09;;;;;;;;;;;15.80;99.90;;;;;;5019217;28;19928;-75
2022/06/07 11:16:38;;;;;;;;;;;15.80;99.90;;;;;;5035845;28;20258;-76
2022/06/07 11:19:04;;;;;;;;;;;15.70;99.90;;;;;;5035948;28;20007;-75
2022/06/07 11:21:30;;;;;;;;;;;15.70;99.90;;;;;;5034826;28;20020;-74
2022/06/07 11:24:02;;;;;;;;;;;15.60;99.90;;;;;;5018997;28;20284;-74
2022/06/07 11:26:34;;;;;;;;;;;15.60;99.90;;;;;;5035537;28;19921;-75
2022/06/07 11:29:00;;;;;;;;;;;15.50;99.90;;;;;;5018104;28;20281;-74
2022/06/07 11:31:31;;;;;;;;;;;15.40;99.90;;;;;;5018477;28;19925;-75
2022/06/07 11:33:57;;;;;;;;;;;15.30;99.90;;;;;;5035540;28;20012;-73
2022/06/07 11:36:30;;;;;;;;;;;15.30;99.90;;;;;;5017959;28;19928;-74
2022/06/07 11:39:04;;;;;;;;;;;15.30;99.90;;;;;;5044340;28;20107;-70
2022/06/07 11:41:42;;;;;;;;;;;15.40;99.90;;;;;;5043428;28;19960;-71
2022/06/07 11:44:08;;;;;;;;;;;15.50;99.90;;;;;;5042002;28;19921;-71
2022/06/07 11:46:33;;;;;;;;;;;15.70;99.90;;;;;;5042253;28;19921;-72
2022/06/07 11:49:17;;;;;;;;;;;15.80;99.90;;;;;;5035863;28;20266;-75
2022/06/07 11:51:43;;;;;;;;;;;16.00;99.90;;;;;;5035150;28;19927;-76
2022/06/07 11:54:13;;;;;;;;;;;16.20;99.90;;;;;;5034277;28;19921;-75
2022/06/07 11:56:42;;;;;;;;;;;16.30;99.90;;;;;;5034866;28;20353;-79
2022/06/07 11:59:16;;;;;;;;;;;16.30;99.90;;;;;;5035061;28;20011;-74
2022/06/07 12:01:44;;;;;;;;;;;16.40;99.90;;;;;;5035553;28;20268;-74
2022/06/07 12:04:33;;;;;;;;;;;16.40;99.90;;;;;;5033891;28;19927;-75
2022/06/07 12:07:18;;;;;;;;;;;16.40;99.90;;;;;;5006977;28;19976;-74
2022/06/07 12:09:49;;;;;;;;;;;16.40;99.90;;;;;;5034324;28;20243;-74
2022/06/07 12:12:31;;;;;;;;;;;16.40;99.90;;;;;;5017540;28;19921;-74
2022/06/07 12:15:18;;;;;;;;;;;16.30;99.90;;;;;;5035060;28;19928;-75
2022/06/07 12:17:51;;;;;;;;;;;16.20;99.90;;;;;;5035099;28;19921;-75
2022/06/07 12:20:26;;;;;;;;;;;16.10;99.90;;;;;;5034651;28;19931;-75
2022/06/07 12:22:51;;;;;;;;;;;16.00;99.90;;;;;;5016986;28;20003;-75
2022/06/07 12:25:18;;;;;;;;;;;15.80;99.90;;;;;;5018025;28;19964;-74
2022/06/07 12:27:45;;;;;;;;;;;15.80;99.90;;;;;;5000486;28;20300;-78
2022/06/07 12:30:20;;;;;;;;;;;15.80;99.90;;;;;;5034819;28;19928;-75
2022/06/07 12:32:45;;;;;;;;;;;15.80;99.90;;;;;;5034924;28;19921;-75
2022/06/07 12:35:20;;;;;;;;;;;16.00;99.90;;;;;;5034296;28;20377;-75
2022/06/07 12:37:53;;;;;;;;;;;16.10;99.90;;;;;;5034966;28;19932;-77
2022/06/07 12:40:21;;;;;;;;;;;16.10;99.90;;;;;;5034781;28;19928;-75
2022/06/07 12:42:47;;;;;;;;;;;16.10;99.90;;;;;;5034266;28;19948;-76
2022/06/07 12:45:17;;;;;;;;;;;16.10;99.90;;;;;;5000403;28;19921;-75
2022/06/07 12:47:44;;;;;;;;;;;16.10;99.90;;;;;;5017587;28;19927;-75
2022/06/07 12:50:20;;;;;;;;;;;16.20;99.90;;;;;;5034798;28;19921;-74
2022/06/07 12:52:52;;;;;;;;;;;16.30;99.90;;;;;;5016894;28;19921;-75
2022/06/07 12:55:25;;;;;;;;;;;16.50;99.90;;;;;;5033036;28;19920;-75
2022/06/07 12:57:52;;;;;;;;;;;16.50;99.90;;;;;;5033675;28;19978;-75
2022/06/07 13:00:18;;;;;;;;;;;16.50;99.90;;;;;;5034185;28;20374;-74
2022/06/07 13:02:44;;;;;;;;;;;16.50;99.90;;;;;;5034072;28;19968;-76
2022/06/07 13:05:18;;;;;;;;;;;16.50;99.90;;;;;;5034687;28;19925;-74
2022/06/07 13:07:47;;;;;;;;;;;16.40;99.90;;;;;;5032714;28;20397;-74
2022/06/07 13:10:14;;;;;;;;;;;16.40;99.90;;;;;;5033742;28;19921;-74
2022/06/07 13:12:42;;;;;;;;;;;16.30;99.90;;;;;;5034355;28;19921;-75
2022/06/07 13:15:15;;;;;;;;;;;16.30;99.90;;;;;;5016659;28;19927;-75
2022/06/07 13:17:41;;;;;;;;;;;16.30;99.90;;;;;;5034259;28;20250;-75
2022/06/07 13:20:08;;;;;;;;;;;16.30;99.90;;;;;;5032796;28;19971;-75
2022/06/07 13:22:38;;;;;;;;;;;16.40;99.90;;;;;;5016889;28;19921;-75
2022/06/07 13:25:09;;;;;;;;;;;16.50;99.90;;;;;;5032732;28;19921;-74
2022/06/07 13:27:45;;;;;;;;;;;16.50;99.90;;;;;;5034640;28;19928;-73
2022/06/07 13:30:15;;;;;;;;;;;16.70;99.90;;;;;;5034397;28;19921;-73
2022/06/07 13:32:40;;;;;;;;;;;16.60;99.90;;;;;;5034930;28;19928;-75
2022/06/07 13:35:22;;;;;;;;;;;16.60;99.90;;;;;;5058267;28;19905;-77
2022/06/07 13:38:02;;;;;;;;;;;16.60;99.90;;;;;;5057766;28;19937;-78
2022/06/07 13:40:28;;;;;;;;;;;16.50;99.90;;;;;;5057218;28;19912;-79
2022/06/07 13:42:58;;;;;;;;;;;16.40;99.90;;;;;;5040952;28;20289;-76
2022/06/07 13:45:25;;;;;;;;;;;16.40;99.90;;;;;;5034703;28;20243;-76
2022/06/07 13:48:00;;;;;;;;;;;16.50;99.90;;;;;;5033975;28;19976;-76
2022/06/07 13:53:26;;;;;;;;;;;16.60;99.90;;;;;;5034381;28;19921;-75
2022/06/07 13:56:01;;;;;;;;;;;16.60;99.90;;;;;;5034130;28;19921;-75
2022/06/07 13:58:27;;;;;;;;;;;16.60;99.90;;;;;;5034927;28;20229;-74
2022/06/07 14:01:19;;;;;;;;;;;16.50;99.90;;;;;;5033450;28;19925;-75
2022/06/07 14:03:59;;;;;;;;;;;16.40;99.90;;;;;;5010200;28;19921;-75
2022/06/07 14:06:38;;;;;;;;;;;16.50;99.90;;;;;;5033997;28;20011;-75
2022/06/07 14:09:05;;;;;;;;;;;16.60;99.90;;;;;;5033744;28;19928;-75
2022/06/07 14:11:34;;;;;;;;;;;16.60;99.90;;;;;;5019069;28;19921;-74
2022/06/07 14:14:00;;;;;;;;;;;16.70;99.90;;;;;;5035819;28;19971;-76
2022/06/07 14:16:32;;;;;;;;;;;16.70;99.90;;;;;;5036982;28;19925;-75
2022/06/07 14:18:58;;;;;;;;;;;16.80;99.90;;;;;;5037509;28;20007;-75
2022/06/07 14:21:24;;;;;;;;;;;16.80;99.90;;;;;;5035588;28;20473;-75
2022/06/07 14:23:50;;;;;;;;;;;16.70;99.90;;;;;;5019538;28;19973;-77
2022/06/07 14:26:15;;;;;;;;;;;16.60;99.90;;;;;;5019050;28;19959;-76
2022/06/07 14:28:41;;;;;;;;;;;16.50;99.90;;;;;;5037158;28;19928;-76
2022/06/07 14:31:11;;;;;;;;;;;16.50;99.90;;;;;;5036643;28;19921;-75
2022/06/07 14:33:37;;;;;;;;;;;16.50;99.90;;;;;;5035502;28;19921;-75
2022/06/07 14:36:02;;;;;;;;;;;16.50;99.90;;;;;;5035282;28;19928;-75
2022/06/07 14:38:28;;;;;;;;;;;16.40;99.90;;;;;;5036544;28;19921;-74
2022/06/07 14:40:53;;;;;;;;;;;16.40;99.90;;;;;;5036528;28;19928;-75
2022/06/07 14:43:20;;;;;;;;;;;16.40;99.90;;;;;;5036407;28;19974;-75
2022/06/07 14:45:45;;;;;;;;;;;16.60;99.90;;;;;;5035272;28;19921;-75
2022/06/07 14:48:15;;;;;;;;;;;16.70;99.90;;;;;;5036979;28;19928;-76
2022/06/07 14:50:41;;;;;;;;;;;16.80;99.90;;;;;;5035392;28;19921;-76